PWSweather.com
Personal Weather Stations
Station Observations
WISCHPK61
Green Bay Schmitt Park, Green Bay, WI 54311

Green Bay Schmitt ParkGreen Bay, WI 54311

Lat: 44.514277, Lon: -87.935067

Elevation: 735

Station Type: Acu Rite Pro Weather Center model 02032C

http://greenbayweathercam.com

High Low Average
Temperature 83.2°F28.4°C 50.7°F10.4°C 65.8°F18.8°C
Dew Point 82.9°F28.3°C 41.1°F5.1°C 63.2°F17.3°C
Winds Calm Calm Calm Calm Calm SCalm S
Wind Gusts -- -- --
Humidity 99% 67% 92%
Pressure 29.30 in992.2 mb 28.99 in981.7 mb -
Precipitation 0.00 in0.0 mm - -
Hour Temp Dew Point Humidity Winds Wind Gusts Pressure Precip Precip Rate Daily Precip Total
12:00 AM 51.1°F10.6°C 50.8°F10.4°C 99% Calm Calm -- 29.32 in992.9 mb - 0.00 in0.0 mm 0.00 in0.0 mm
01:00 AM 51.6°F10.9°C 51.3°F10.7°C 99% Calm Calm -- 29.30 in992.2 mb - 0.00 in0.0 mm 0.00 in0.0 mm
02:00 AM 51.6°F10.9°C 51.3°F10.7°C 99% Calm Calm -- 29.29 in991.9 mb - 0.00 in0.0 mm 0.00 in0.0 mm
03:00 AM 52.2°F11.2°C 42.7°F5.9°C 70% Calm Calm -- 29.29 in991.9 mb - 0.00 in0.0 mm 0.00 in0.0 mm
04:00 AM 51.3°F10.7°C 41.1°F5.1°C 68% Calm Calm -- 29.25 in990.5 mb - 0.00 in0.0 mm 0.00 in0.0 mm
05:00 AM 50.7°F10.4°C 45.7°F7.6°C 83% Calm Calm -- 29.24 in990.2 mb - 0.00 in0.0 mm 0.00 in0.0 mm
06:00 AM 51.1°F10.6°C 50.8°F10.4°C 99% Calm Calm -- 29.22 in989.5 mb - 0.00 in0.0 mm 0.00 in0.0 mm
07:00 AM 55.0°F12.8°C 54.7°F12.6°C 99% Calm Calm -- 29.22 in989.5 mb - 0.00 in0.0 mm 0.00 in0.0 mm
08:00 AM 59.5°F15.3°C 59.2°F15.1°C 99% Calm Calm -- 29.21 in989.2 mb - 0.00 in0.0 mm 0.00 in0.0 mm
09:00 AM 66.8°F19.3°C 66.5°F19.2°C 99% Calm Calm -- 29.20 in988.8 mb - 0.00 in0.0 mm 0.00 in0.0 mm
10:00 AM 72.1°F22.3°C 60.5°F15.8°C 67% Calm Calm -- 29.19 in988.5 mb - 0.00 in0.0 mm 0.00 in0.0 mm
11:00 AM 74.7°F23.7°C 74.4°F23.6°C 99% Calm Calm -- 29.18 in988.1 mb - 0.00 in0.0 mm 0.00 in0.0 mm
12:00 PM 78.7°F25.9°C 78.4°F25.8°C 99% Calm Calm -- 29.15 in987.1 mb - 0.00 in0.0 mm 0.00 in0.0 mm
01:00 PM 81.7°F27.6°C 81.4°F27.4°C 99% Calm Calm -- 29.12 in986.1 mb - 0.00 in0.0 mm 0.00 in0.0 mm
02:00 PM 83.2°F28.4°C 82.9°F28.3°C 99% Calm Calm -- 29.10 in985.4 mb - 0.00 in0.0 mm 0.00 in0.0 mm
04:00 PM 82.0°F27.8°C 70.4°F21.3°C 68% Calm Calm -- 29.07 in984.4 mb - 0.00 in0.0 mm 0.00 in0.0 mm
05:00 PM 75.9°F24.4°C 70.0°F21.1°C 82% Calm Calm -- 29.06 in984.1 mb - 0.00 in0.0 mm 0.00 in0.0 mm
06:00 PM 74.7°F23.7°C 74.4°F23.6°C 99% Calm Calm -- 29.05 in983.7 mb - 0.00 in0.0 mm 0.00 in0.0 mm
07:00 PM 72.9°F22.7°C 71.1°F21.7°C 94% Calm Calm -- 29.03 in983.1 mb - 0.00 in0.0 mm 0.00 in0.0 mm
08:00 PM 68.4°F20.2°C 68.1°F20.1°C 99% Calm Calm -- 29.03 in983.1 mb - 0.00 in0.0 mm 0.00 in0.0 mm
09:00 PM 64.9°F18.3°C 64.6°F18.1°C 99% Calm Calm -- 29.02 in982.7 mb - 0.00 in0.0 mm 0.00 in0.0 mm
10:00 PM 64.6°F18.1°C 64.3°F17.9°C 99% Calm Calm -- 29.00 in982.1 mb - 0.00 in0.0 mm 0.00 in0.0 mm
11:00 PM 64.8°F18.2°C 64.5°F18.1°C 99% Calm Calm -- 29.00 in982.1 mb - 0.00 in0.0 mm 0.00 in0.0 mm